Airfield :
LOGIN :

Register | Disclaimer

   EN    FR    IT 

 










Legend :    VFR   Marginal VFR   IFR   Intensive IFR   Very Intensive IFR
Visi :
Ceiling :
>= 8 km
>= 3000ft
5 to 8 km
1000 to 3000 ft
1500m to 5 km
500 to 1000 ft
800 to 1500m
200 to 500 ft
< 800m
< 200 ft
Symbols :   Thunderstorms  Fog  Heavy snow  Heavy precipitations  Wind > 20 kt
SIGMETs :     Misc.  Thunderstorms  Icing  Turbulence  Mountain Waves  Volcanic Ashes







- Airport Elevation : 659 ft
- IATA code : LGG


EBLG - Liège

CURRENT METAR :
  • 181150Z 21004KT 170V230 9999 FEW012 02/M00 Q1020 NOSIG

EXPIRED METARs :
  • 181120Z 22003KT 180V260 9000 FEW009 02/00 Q1020 NOSIG
  • 181050Z VRB02KT 7000 FEW007 02/00 Q1020 NOSIG
  • 181020Z 22003KT 190V250 5000 BR FEW005 01/M00 Q1020 NOSIG
  • 180950Z 23003KT 4300 BR FEW004 01/M00 Q1020 BECMG 5000
  • 180920Z 20003KT 140V230 3400 BR FEW003 00/M00 Q1020 BECMG 5000

TAF TAF EBLG
Valid from the 18 at 12:00 until the 19 at 18:00 UTC


181110Z 1812/1918 16005KT 8000 NSC
No reported NOTAMs for that airfield.



MET'MAP, your aeronautical weather chart ! - Copyright ORBIFLY December 2007 - Disclaimer

ORBIFLY MET'MAP TEAM :

Programming & Development : Alexandra Zaïnal
Concept & Development : Baudouin d'Aumeries
Co-Development & Prog : Marc-Olivier Méhu
Technical & hardware support : Manuel Goepfert

Contact : metmap@orbifly.com




SOURCES & CREDITS :

   NOAA